Time;durP1;ratioP1;P1;durP2;ratioP2;P2;SDS_P1;SDS_P2;PMS_P1;PMS_P2;Temp;Humidity;BMP_temperature;BMP_pressure;BME280_temperature;BME280_humidity;BME280_pressure;Samples;Min_cycle;Max_cycle;Signal;HPM_P1;HPM_P2
2022/11/27 00:01:12;;;;;;;7.85;5.30;;;;;;;;;;5032699;28;20045;-79
2022/11/27 00:03:38;;;;;;;9.90;6.00;;;;;;;;;;5034929;28;20029;-78
2022/11/27 00:06:05;;;;;;;8.32;5.85;;;;;;;;;;5034423;28;20035;-77
2022/11/27 00:08:31;;;;;;;7.47;5.50;;;;;;;;;;5034702;28;20040;-79
2022/11/27 00:10:57;;;;;;;8.30;6.50;;;;;;;;;;5028585;28;20034;-78
2022/11/27 00:13:23;;;;;;;9.55;6.22;;;;;;;;;;5014769;28;20034;-77
2022/11/27 00:15:50;;;;;;;10.15;6.65;;;;;;;;;;5014880;28;20061;-77
2022/11/27 00:18:16;;;;;;;11.20;7.72;;;;;;;;;;5014423;28;20034;-77
2022/11/27 00:20:42;;;;;;;9.88;6.68;;;;;;;;;;5017672;28;20071;-77
2022/11/27 00:23:08;;;;;;;10.00;6.97;;;;;;;;;;5034231;28;20036;-76
2022/11/27 00:25:34;;;;;;;10.23;6.90;;;;;;;;;;5034362;28;20038;-78
2022/11/27 00:28:00;;;;;;;9.10;6.68;;;;;;;;;;5034121;28;20030;-78
2022/11/27 00:30:26;;;;;;;13.20;8.90;;;;;;;;;;5033015;28;20476;-78
2022/11/27 00:32:52;;;;;;;12.57;7.75;;;;;;;;;;5014486;28;20021;-77
2022/11/27 00:35:19;;;;;;;12.13;8.77;;;;;;;;;;5013914;28;20105;-78
2022/11/27 00:37:45;;;;;;;11.20;7.10;;;;;;;;;;5015959;28;20138;-78
2022/11/27 00:40:11;;;;;;;11.25;7.70;;;;;;;;;;5033769;28;20436;-78
2022/11/27 00:42:37;;;;;;;13.68;8.88;;;;;;;;;;5034050;28;20091;-78
2022/11/27 00:45:03;;;;;;;14.07;9.15;;;;;;;;;;5034106;28;20022;-77
2022/11/27 00:47:29;;;;;;;13.02;9.25;;;;;;;;;;5033753;28;20018;-78
2022/11/27 00:49:56;;;;;;;12.73;8.30;;;;;;;;;;5033073;28;20026;-78
2022/11/27 00:52:22;;;;;;;14.30;9.85;;;;;;;;;;5033701;28;20037;-77
2022/11/27 00:54:48;;;;;;;12.27;8.77;;;;;;;;;;5033844;28;20030;-78
2022/11/27 00:57:14;;;;;;;12.65;8.63;;;;;;;;;;5033535;28;20396;-78
2022/11/27 00:59:40;;;;;;;15.77;10.18;;;;;;;;;;5029976;28;20081;-77
2022/11/27 01:02:06;;;;;;;12.38;9.02;;;;;;;;;;5013792;28;20057;-78
2022/11/27 01:04:32;;;;;;;14.82;9.18;;;;;;;;;;5013691;28;20026;-77
2022/11/27 01:06:58;;;;;;;13.43;9.98;;;;;;;;;;5022185;28;20358;-78
2022/11/27 01:09:24;;;;;;;13.20;9.65;;;;;;;;;;5032606;28;20030;-77
2022/11/27 01:11:50;;;;;;;30.52;19.40;;;;;;;;;;5033488;28;20029;-78
2022/11/27 01:14:17;;;;;;;26.83;19.88;;;;;;;;;;5019662;28;20428;-78
2022/11/27 01:16:43;;;;;;;17.02;11.85;;;;;;;;;;5013676;28;20084;-78
2022/11/27 01:19:10;;;;;;;21.55;18.15;;;;;;;;;;5013650;28;20444;-78
2022/11/27 01:21:37;;;;;;;14.90;10.50;;;;;;;;;;5013244;28;20449;-78
2022/11/27 01:24:03;;;;;;;13.88;9.38;;;;;;;;;;5013454;28;20030;-77
2022/11/27 01:26:30;;;;;;;11.63;7.75;;;;;;;;;;5013232;28;20029;-77
2022/11/27 01:28:57;;;;;;;11.98;8.05;;;;;;;;;;5022397;28;20084;-78
2022/11/27 01:31:25;;;;;;;11.50;7.38;;;;;;;;;;5033118;28;20088;-77
2022/11/27 01:33:55;;;;;;;12.13;7.55;;;;;;;;;;5033066;28;20420;-77
2022/11/27 01:36:22;;;;;;;12.85;7.28;;;;;;;;;;5032834;28;20025;-77
2022/11/27 01:38:49;;;;;;;9.50;6.50;;;;;;;;;;5032761;28;20034;-79
2022/11/27 01:41:26;;;;;;;10.27;7.20;;;;;;;;;;5032778;28;20079;-78
2022/11/27 01:44:03;;;;;;;10.50;6.95;;;;;;;;;;5032978;28;20025;-77
2022/11/27 01:46:43;;;;;;;11.85;7.22;;;;;;;;;;5020230;28;20022;-77
2022/11/27 01:49:17;;;;;;;10.32;6.57;;;;;;;;;;5013011;28;20022;-78
2022/11/27 01:51:48;;;;;;;9.52;7.43;;;;;;;;;;5013095;28;20052;-79
2022/11/27 01:54:15;;;;;;;9.95;7.18;;;;;;;;;;5013143;28;20034;-77
2022/11/27 01:56:43;;;;;;;11.32;7.82;;;;;;;;;;5013000;28;20026;-77
2022/11/27 01:59:09;;;;;;;10.23;8.10;;;;;;;;;;5013008;28;20112;-78
2022/11/27 02:01:35;;;;;;;13.73;9.57;;;;;;;;;;5012786;28;20050;-78
2022/11/27 02:04:01;;;;;;;14.95;10.27;;;;;;;;;;5013644;28;20034;-77
2022/11/27 02:06:28;;;;;;;14.73;9.68;;;;;;;;;;5014877;28;20361;-77
2022/11/27 02:08:55;;;;;;;13.65;10.07;;;;;;;;;;5012608;28;20512;-77
2022/11/27 02:11:53;;;;;;;15.45;9.93;;;;;;;;;;5012703;28;20503;-78
2022/11/27 02:14:34;;;;;;;12.85;9.48;;;;;;;;;;4979950;28;20048;-78
2022/11/27 02:17:12;;;;;;;13.63;9.88;;;;;;;;;;5021458;28;20535;-78
2022/11/27 02:19:59;;;;;;;13.85;9.88;;;;;;;;;;5012676;28;20052;-77
2022/11/27 02:22:37;;;;;;;13.15;10.18;;;;;;;;;;5002411;28;20069;-78
2022/11/27 02:25:03;;;;;;;14.48;9.05;;;;;;;;;;5013758;28;20084;-78
2022/11/27 02:27:48;;;;;;;13.07;9.00;;;;;;;;;;5012640;28;20053;-77
2022/11/27 02:30:14;;;;;;;13.60;8.05;;;;;;;;;;5012722;28;20030;-78
2022/11/27 02:32:59;;;;;;;13.88;8.10;;;;;;;;;;5012420;28;20380;-78
2022/11/27 02:35:25;;;;;;;13.48;9.18;;;;;;;;;;5012361;28;20096;-78
2022/11/27 02:38:10;;;;;;;14.32;8.90;;;;;;;;;;5013373;28;20057;-78
2022/11/27 02:40:42;;;;;;;13.60;9.07;;;;;;;;;;5023169;28;20022;-77
2022/11/27 02:43:11;;;;;;;13.63;9.50;;;;;;;;;;5031996;28;20443;-78
2022/11/27 02:45:39;;;;;;;12.50;9.00;;;;;;;;;;5032058;28;20379;-78
2022/11/27 02:48:06;;;;;;;15.30;10.68;;;;;;;;;;5031861;28;20034;-78
2022/11/27 02:50:34;;;;;;;14.30;9.43;;;;;;;;;;5032011;28;20025;-78
2022/11/27 02:53:03;;;;;;;13.88;9.07;;;;;;;;;;5031904;28;20034;-78
2022/11/27 02:55:31;;;;;;;16.60;10.95;;;;;;;;;;5032290;28;20481;-77
2022/11/27 02:57:58;;;;;;;14.23;9.27;;;;;;;;;;5016615;28;20045;-78
2022/11/27 03:00:24;;;;;;;13.50;9.60;;;;;;;;;;5012203;28;20058;-77
2022/11/27 03:02:55;;;;;;;12.68;9.15;;;;;;;;;;5012028;28;20100;-78
2022/11/27 03:05:23;;;;;;;13.68;9.43;;;;;;;;;;5012490;28;20392;-79
2022/11/27 03:07:52;;;;;;;14.38;9.07;;;;;;;;;;5011895;28;20014;-78
2022/11/27 03:10:21;;;;;;;22.17;14.88;;;;;;;;;;5012166;28;20101;-78
2022/11/27 03:12:48;;;;;;;17.73;11.30;;;;;;;;;;5011898;28;20034;-78
2022/11/27 03:15:14;;;;;;;15.35;10.52;;;;;;;;;;5013193;28;20029;-78
2022/11/27 03:17:52;;;;;;;15.32;10.98;;;;;;;;;;5013870;28;20428;-77
2022/11/27 03:20:29;;;;;;;12.68;9.63;;;;;;;;;;5031606;28;20021;-77
2022/11/27 03:22:55;;;;;;;14.60;10.57;;;;;;;;;;5031760;28;20135;-78
2022/11/27 03:25:22;;;;;;;12.57;8.50;;;;;;;;;;5031583;28;20432;-77
2022/11/27 03:27:58;;;;;;;15.30;9.55;;;;;;;;;;5031515;28;20021;-78
2022/11/27 03:30:24;;;;;;;13.63;9.90;;;;;;;;;;5031482;28;20026;-78
2022/11/27 03:32:50;;;;;;;13.45;8.77;;;;;;;;;;5034206;28;20063;-77
2022/11/27 03:35:18;;;;;;;16.13;10.82;;;;;;;;;;5024275;28;20033;-78
2022/11/27 03:37:44;;;;;;;15.07;10.05;;;;;;;;;;5015362;28;20045;-77
2022/11/27 03:40:11;;;;;;;13.88;9.93;;;;;;;;;;5015507;28;20116;-79
2022/11/27 03:42:51;;;;;;;14.18;9.75;;;;;;;;;;5015226;28;20480;-77
2022/11/27 03:45:20;;;;;;;16.20;10.15;;;;;;;;;;5015212;28;20076;-78
2022/11/27 03:48:05;;;;;;;13.95;9.68;;;;;;;;;;5015311;28;20033;-77
2022/11/27 03:50:49;;;;;;;15.75;10.23;;;;;;;;;;5015273;28;20030;-78
2022/11/27 03:53:34;;;;;;;13.93;9.50;;;;;;;;;;5018000;28;20041;-78
2022/11/27 03:56:29;;;;;;;13.90;9.07;;;;;;;;;;4978110;28;20445;-77
2022/11/27 03:58:55;;;;;;;;;;;;;;;;;;4979403;28;20054;-77
2022/11/27 04:01:23;;;;;;;13.68;10.48;;;;;;;;;;4995061;28;19918;-77
2022/11/27 04:03:49;;;;;;;15.48;10.88;;;;;;;;;;4995199;28;20031;-76
2022/11/27 04:06:16;;;;;;;15.00;10.70;;;;;;;;;;4995285;28;20034;-78
2022/11/27 04:08:42;;;;;;;15.95;10.73;;;;;;;;;;4995063;28;20490;-78
2022/11/27 04:11:08;;;;;;;15.90;10.90;;;;;;;;;;4995087;28;20034;-77
2022/11/27 04:13:34;;;;;;;15.80;10.65;;;;;;;;;;5024236;28;20061;-78
2022/11/27 04:16:01;;;;;;;15.88;10.73;;;;;;;;;;5016843;28;20380;-78
2022/11/27 04:18:27;;;;;;;14.02;10.23;;;;;;;;;;5034351;28;20579;-77
2022/11/27 04:20:53;;;;;;;15.05;10.80;;;;;;;;;;5034362;28;20075;-78
2022/11/27 04:23:19;;;;;;;14.93;10.38;;;;;;;;;;5034139;28;20053;-78
2022/11/27 04:25:45;;;;;;;15.85;11.43;;;;;;;;;;5034259;28;20084;-78
2022/11/27 04:28:11;;;;;;;15.07;10.93;;;;;;;;;;5034237;28;20090;-78
2022/11/27 04:30:37;;;;;;;16.55;10.60;;;;;;;;;;5034313;28;20025;-77
2022/11/27 04:33:03;;;;;;;16.85;11.65;;;;;;;;;;5017605;28;20477;-78
2022/11/27 04:35:29;;;;;;;16.17;11.45;;;;;;;;;;5014257;28;20104;-77
2022/11/27 04:37:58;;;;;;;16.98;11.90;;;;;;;;;;5014263;28;20036;-77
2022/11/27 04:40:24;;;;;;;32.30;19.52;;;;;;;;;;5014170;28;20080;-77
2022/11/27 04:42:50;;;;;;;46.53;28.45;;;;;;;;;;5021770;28;20072;-78
2022/11/27 04:45:17;;;;;;;18.58;13.50;;;;;;;;;;5033290;28;20025;-77
2022/11/27 04:47:43;;;;;;;16.63;11.95;;;;;;;;;;5021295;28;20061;-77
2022/11/27 04:50:09;;;;;;;15.20;11.18;;;;;;;;;;5014225;28;20030;-78
2022/11/27 04:52:35;;;;;;;16.90;11.82;;;;;;;;;;5013878;28;20084;-78
2022/11/27 04:55:01;;;;;;;16.75;13.40;;;;;;;;;;5013959;28;20105;-77
2022/11/27 04:57:27;;;;;;;17.70;13.55;;;;;;;;;;5013775;28;20037;-78
2022/11/27 04:59:53;;;;;;;16.75;12.48;;;;;;;;;;5013877;28;20495;-77
2022/11/27 05:02:20;;;;;;;17.63;12.65;;;;;;;;;;5013770;28;20050;-78
2022/11/27 05:04:46;;;;;;;15.90;11.80;;;;;;;;;;5013802;28;20093;-77
2022/11/27 05:07:12;;;;;;;15.43;11.73;;;;;;;;;;5014772;28;20026;-77
2022/11/27 05:09:38;;;;;;;16.58;12.20;;;;;;;;;;5013537;28;20048;-78
2022/11/27 05:12:04;;;;;;;18.90;13.43;;;;;;;;;;4996088;28;20037;-77
2022/11/27 05:14:30;;;;;;;18.25;11.52;;;;;;;;;;5013785;28;20053;-78
2022/11/27 05:16:57;;;;;;;20.77;13.60;;;;;;;;;;5013710;28;20041;-77
2022/11/27 05:19:25;;;;;;;18.17;12.50;;;;;;;;;;5030045;28;20068;-77
2022/11/27 05:21:51;;;;;;;17.92;13.20;;;;;;;;;;5033330;28;20030;-77
2022/11/27 05:24:18;;;;;;;18.90;13.07;;;;;;;;;;5033286;28;20041;-77
2022/11/27 05:26:45;;;;;;;17.27;11.88;;;;;;;;;;5033189;28;20033;-77
2022/11/27 05:29:12;;;;;;;18.13;12.93;;;;;;;;;;5033225;28;20358;-76
2022/11/27 05:31:38;;;;;;;18.55;13.00;;;;;;;;;;5031934;28;20091;-77
2022/11/27 05:34:04;;;;;;;16.38;11.88;;;;;;;;;;5033029;28;20029;-77
2022/11/27 05:36:31;;;;;;;17.25;12.32;;;;;;;;;;5032716;28;20031;-78
2022/11/27 05:38:57;;;;;;;17.30;11.52;;;;;;;;;;5032783;28;20488;-77
2022/11/27 05:41:23;;;;;;;17.20;12.38;;;;;;;;;;5032949;28;20047;-77
2022/11/27 05:43:49;;;;;;;16.02;11.38;;;;;;;;;;5032613;28;20033;-77
2022/11/27 05:46:17;;;;;;;18.25;12.40;;;;;;;;;;5032954;28;20113;-77
2022/11/27 05:48:43;;;;;;;19.80;12.93;;;;;;;;;;5032601;28;20487;-77
2022/11/27 05:51:09;;;;;;;17.00;12.55;;;;;;;;;;5032806;28;20113;-77
2022/11/27 05:53:35;;;;;;;19.55;13.93;;;;;;;;;;5032530;28;20025;-78
2022/11/27 05:56:06;;;;;;;20.85;13.57;;;;;;;;;;5032346;28;20033;-78
2022/11/27 05:58:32;;;;;;;23.55;16.25;;;;;;;;;;5032273;28;20033;-77
2022/11/27 06:00:58;;;;;;;25.15;16.08;;;;;;;;;;5030919;28;20045;-77
2022/11/27 06:03:25;;;;;;;23.77;14.70;;;;;;;;;;5032270;28;20052;-77
2022/11/27 06:05:51;;;;;;;21.80;15.13;;;;;;;;;;5032310;28;20026;-78
2022/11/27 06:08:18;;;;;;;22.17;15.63;;;;;;;;;;5032601;28;20034;-78
2022/11/27 06:10:44;;;;;;;21.08;14.32;;;;;;;;;;5014537;28;20447;-77
2022/11/27 06:13:10;;;;;;;20.83;15.85;;;;;;;;;;5032248;28;20021;-77
2022/11/27 06:15:37;;;;;;;20.95;15.65;;;;;;;;;;5032165;28;20040;-77
2022/11/27 06:18:03;;;;;;;23.05;15.52;;;;;;;;;;5032227;28;20041;-77
2022/11/27 06:20:29;;;;;;;23.38;15.90;;;;;;;;;;5032108;28;20149;-76
2022/11/27 06:22:56;;;;;;;23.05;16.08;;;;;;;;;;5030288;28;20037;-78
2022/11/27 06:25:22;;;;;;;19.83;13.95;;;;;;;;;;5031652;28;20029;-77
2022/11/27 06:27:49;;;;;;;26.25;17.65;;;;;;;;;;5032198;28;20465;-77
2022/11/27 06:30:15;;;;;;;23.88;16.48;;;;;;;;;;5032166;28;20037;-77
2022/11/27 06:32:41;;;;;;;22.00;15.02;;;;;;;;;;5031824;28;20025;-78
2022/11/27 06:35:07;;;;;;;29.10;18.88;;;;;;;;;;5014535;28;20030;-78
2022/11/27 06:37:33;;;;;;;24.35;17.73;;;;;;;;;;5032013;28;20071;-77
2022/11/27 06:40:00;;;;;;;19.55;14.60;;;;;;;;;;5031562;28;20392;-78
2022/11/27 06:42:29;;;;;;;22.73;15.73;;;;;;;;;;5032122;28;20021;-77
2022/11/27 06:44:55;;;;;;;27.70;18.20;;;;;;;;;;5030398;28;20105;-77
2022/11/27 06:47:21;;;;;;;30.65;20.17;;;;;;;;;;5031569;28;20473;-77
2022/11/27 06:49:47;;;;;;;20.52;13.02;;;;;;;;;;5031784;28;20030;-77
2022/11/27 06:52:13;;;;;;;24.70;16.55;;;;;;;;;;5030329;28;20029;-78
2022/11/27 06:54:39;;;;;;;25.40;16.35;;;;;;;;;;5028835;28;20029;-78
2022/11/27 06:57:05;;;;;;;46.97;28.65;;;;;;;;;;5031432;28;20025;-78
2022/11/27 07:02:34;;;;;;;49.47;33.95;;;;;;;;;;5013357;28;20065;-76
2022/11/27 07:05:01;;;;;;;31.77;22.02;;;;;;;;;;5011496;28;20165;-77
2022/11/27 07:07:27;;;;;;;33.40;23.60;;;;;;;;;;5009381;28;20065;-78
2022/11/27 07:09:53;;;;;;;38.25;25.90;;;;;;;;;;5016078;28;20441;-77
2022/11/27 07:12:19;;;;;;;30.08;21.27;;;;;;;;;;5015947;28;20073;-78
2022/11/27 07:14:45;;;;;;;26.88;20.25;;;;;;;;;;5015911;28;20504;-78
2022/11/27 07:17:11;;;;;;;32.67;23.60;;;;;;;;;;5015935;28;20054;-78
2022/11/27 07:19:37;;;;;;;32.70;23.83;;;;;;;;;;5015492;28;20037;-77
2022/11/27 07:22:03;;;;;;;39.33;28.25;;;;;;;;;;5015899;28;20120;-78
2022/11/27 07:24:29;;;;;;;31.30;24.25;;;;;;;;;;5015579;28;20511;-78
2022/11/27 07:26:55;;;;;;;22.85;16.88;;;;;;;;;;5015822;28;20441;-78
2022/11/27 07:29:22;;;;;;;30.08;22.38;;;;;;;;;;5035474;28;20022;-78
2022/11/27 07:31:50;;;;;;;21.40;15.45;;;;;;;;;;5035343;28;20069;-78
2022/11/27 07:34:16;;;;;;;22.48;14.85;;;;;;;;;;5035377;28;20408;-78
2022/11/27 07:36:42;;;;;;;31.75;19.88;;;;;;;;;;5034637;28;20088;-78
2022/11/27 07:39:08;;;;;;;42.50;24.17;;;;;;;;;;5017356;28;20400;-78
2022/11/27 07:41:34;;;;;;;46.03;28.38;;;;;;;;;;5034866;28;20029;-79
2022/11/27 07:44:00;;;;;;;26.52;16.80;;;;;;;;;;5017077;28;20057;-78
2022/11/27 07:46:26;;;;;;;21.42;15.18;;;;;;;;;;5017268;28;20108;-79
2022/11/27 07:48:52;;;;;;;30.38;21.83;;;;;;;;;;5034884;28;20022;-77
2022/11/27 07:51:20;;;;;;;24.75;15.48;;;;;;;;;;5035225;28;20025;-77
2022/11/27 07:53:47;;;;;;;32.50;20.40;;;;;;;;;;5017101;28;20526;-78
2022/11/27 07:56:14;;;;;;;25.58;17.40;;;;;;;;;;5034811;28;20029;-77
2022/11/27 07:58:40;;;;;;;23.15;15.70;;;;;;;;;;5034551;28;20041;-78
2022/11/27 08:01:07;;;;;;;25.20;18.13;;;;;;;;;;5028661;28;20516;-78
2022/11/27 08:03:33;;;;;;;21.63;14.23;;;;;;;;;;5011125;28;20050;-78
2022/11/27 08:05:59;;;;;;;22.48;16.60;;;;;;;;;;4996450;28;20038;-78
2022/11/27 08:08:25;;;;;;;29.90;19.30;;;;;;;;;;4994000;28;20150;-78
2022/11/27 08:10:51;;;;;;;27.08;19.20;;;;;;;;;;5004708;28;20033;-78
2022/11/27 08:13:18;;;;;;;24.50;16.85;;;;;;;;;;5013641;28;20037;-77
2022/11/27 08:15:44;;;;;;;22.05;15.80;;;;;;;;;;5011231;28;20568;-79
2022/11/27 08:18:11;;;;;;;30.52;20.17;;;;;;;;;;5014613;28;20046;-77
2022/11/27 08:20:37;;;;;;;20.13;13.82;;;;;;;;;;5014534;28;20034;-78
2022/11/27 08:23:03;;;;;;;20.48;13.82;;;;;;;;;;5014709;28;20428;-78
2022/11/27 08:25:30;;;;;;;23.38;15.63;;;;;;;;;;4997057;28;20026;-78
2022/11/27 08:27:56;;;;;;;32.78;21.73;;;;;;;;;;5014080;28;20030;-77
2022/11/27 08:30:22;;;;;;;20.98;13.35;;;;;;;;;;5014508;28;20057;-78
2022/11/27 08:32:48;;;;;;;15.75;11.45;;;;;;;;;;5013793;28;20026;-78
2022/11/27 08:35:14;;;;;;;20.23;13.63;;;;;;;;;;5010981;28;20034;-78
2022/11/27 08:37:41;;;;;;;18.63;12.10;;;;;;;;;;4994570;28;20517;-77
2022/11/27 08:40:07;;;;;;;18.33;13.48;;;;;;;;;;4994579;28;20105;-76
2022/11/27 08:42:33;;;;;;;16.23;11.30;;;;;;;;;;4994661;28;20023;-78
2022/11/27 08:44:59;;;;;;;22.73;14.10;;;;;;;;;;4994339;28;20033;-78
2022/11/27 08:47:25;;;;;;;20.73;13.73;;;;;;;;;;4994567;28;20061;-77
2022/11/27 08:49:52;;;;;;;19.27;12.35;;;;;;;;;;4976703;28;20454;-78
2022/11/27 08:52:19;;;;;;;21.40;13.23;;;;;;;;;;4994362;28;20484;-77
2022/11/27 08:54:45;;;;;;;20.70;13.20;;;;;;;;;;4994472;28;20109;-78
2022/11/27 08:57:11;;;;;;;22.98;14.43;;;;;;;;;;4994199;28;20113;-79
2022/11/27 08:59:37;;;;;;;18.60;12.63;;;;;;;;;;4976746;28;20035;-78
2022/11/27 09:02:04;;;;;;;22.13;15.52;;;;;;;;;;5006408;28;20057;-77
2022/11/27 09:04:30;;;;;;;21.80;15.85;;;;;;;;;;5013795;28;20040;-78
2022/11/27 09:06:56;;;;;;;18.90;12.75;;;;;;;;;;5013520;28;20041;-78
2022/11/27 09:09:22;;;;;;;24.85;18.27;;;;;;;;;;5013799;28;20076;-78
2022/11/27 09:11:48;;;;;;;22.10;15.18;;;;;;;;;;5016903;28;20030;-78
2022/11/27 09:14:14;;;;;;;20.17;13.95;;;;;;;;;;4976567;28;20027;-78
2022/11/27 09:16:40;;;;;;;17.45;13.25;;;;;;;;;;4993942;28;20030;-77
2022/11/27 09:19:06;;;;;;;24.23;19.27;;;;;;;;;;4993697;28;20041;-78
2022/11/27 09:21:32;;;;;;;18.25;14.30;;;;;;;;;;4994070;28;20104;-78
2022/11/27 09:23:59;;;;;;;25.13;17.45;;;;;;;;;;5003793;28;20088;-78
2022/11/27 09:26:26;;;;;;;21.20;14.95;;;;;;;;;;5023580;28;20026;-78
2022/11/27 09:28:53;;;;;;;18.92;12.40;;;;;;;;;;5021230;28;20075;-78
2022/11/27 09:31:20;;;;;;;15.18;10.27;;;;;;;;;;5017577;28;20021;-78
2022/11/27 09:33:46;;;;;;;19.35;13.18;;;;;;;;;;5022082;28;20492;-78
2022/11/27 09:36:14;;;;;;;18.60;14.48;;;;;;;;;;5021057;28;20048;-79
2022/11/27 09:38:41;;;;;;;21.33;15.25;;;;;;;;;;5018116;28;20040;-79
2022/11/27 09:41:10;;;;;;;21.65;13.10;;;;;;;;;;5022346;28;20022;-78
2022/11/27 09:43:43;;;;;;;15.57;10.68;;;;;;;;;;5021255;28;20682;-77
2022/11/27 09:46:16;;;;;;;17.10;12.00;;;;;;;;;;5024316;28;20022;-78
2022/11/27 09:48:44;;;;;;;15.93;11.13;;;;;;;;;;5029895;28;20021;-77
2022/11/27 09:51:32;;;;;;;17.20;10.85;;;;;;;;;;5032693;28;20419;-77
2022/11/27 09:54:06;;;;;;;20.45;14.07;;;;;;;;;;5032635;28;20057;-79
2022/11/27 09:56:34;;;;;;;18.55;13.05;;;;;;;;;;5032307;28;20025;-77
2022/11/27 09:59:00;;;;;;;19.35;11.50;;;;;;;;;;5032593;28;20485;-78
2022/11/27 10:01:33;;;;;;;19.95;13.80;;;;;;;;;;4994446;28;20497;-78
2022/11/27 10:04:01;;;;;;;21.45;14.30;;;;;;;;;;5020824;28;20041;-78
2022/11/27 10:06:30;;;;;;;22.77;15.90;;;;;;;;;;5022751;28;20029;-79
2022/11/27 10:09:05;;;;;;;23.08;16.73;;;;;;;;;;5012734;28;20022;-78
2022/11/27 10:11:47;;;;;;;14.05;10.07;;;;;;;;;;5012847;28;20033;-79
2022/11/27 10:14:13;;;;;;;16.92;11.85;;;;;;;;;;5012531;28;20029;-79
2022/11/27 10:16:47;;;;;;;18.58;13.45;;;;;;;;;;5012573;28;20113;-78
2022/11/27 10:19:16;;;;;;;18.70;13.32;;;;;;;;;;5012400;28;20044;-78
2022/11/27 10:22:01;;;;;;;18.73;13.77;;;;;;;;;;5012746;28;20477;-78
2022/11/27 10:24:35;;;;;;;18.58;12.70;;;;;;;;;;5012594;28;20030;-78
2022/11/27 10:27:03;;;;;;;19.30;12.68;;;;;;;;;;5012355;28;20034;-79
2022/11/27 10:29:48;;;;;;;15.05;9.80;;;;;;;;;;5012457;28;20466;-78
2022/11/27 10:32:15;;;;;;;14.20;10.13;;;;;;;;;;5012511;28;20024;-78
2022/11/27 10:34:47;;;;;;;18.85;12.55;;;;;;;;;;5012351;28;20032;-79
2022/11/27 10:37:20;;;;;;;28.35;19.80;;;;;;;;;;5012706;28;20362;-79
2022/11/27 10:39:50;;;;;;;14.23;9.48;;;;;;;;;;5012199;28;20117;-78
2022/11/27 10:42:24;;;;;;;20.15;12.98;;;;;;;;;;5032121;28;20021;-78
2022/11/27 10:44:52;;;;;;;15.88;11.50;;;;;;;;;;5036128;28;20053;-78
2022/11/27 10:47:20;;;;;;;18.48;13.10;;;;;;;;;;5036002;28;20056;-78
2022/11/27 10:49:47;;;;;;;20.02;14.73;;;;;;;;;;5036068;28;20022;-78
2022/11/27 10:52:14;;;;;;;15.55;10.85;;;;;;;;;;5036140;28;20101;-78
2022/11/27 10:54:42;;;;;;;18.00;12.95;;;;;;;;;;5036170;28;20053;-78
2022/11/27 10:57:08;;;;;;;16.88;11.23;;;;;;;;;;5035760;28;20030;-78
2022/11/27 10:59:39;;;;;;;18.60;14.38;;;;;;;;;;5035941;28;20046;-78
2022/11/27 11:02:08;;;;;;;34.42;22.60;;;;;;;;;;5035582;28;20069;-78
2022/11/27 11:04:34;;;;;;;21.15;14.32;;;;;;;;;;5035965;28;20033;-78
2022/11/27 11:07:00;;;;;;;23.52;15.98;;;;;;;;;;5035643;28;20105;-79
2022/11/27 11:09:28;;;;;;;20.17;16.38;;;;;;;;;;5035874;28;20101;-78
2022/11/27 11:12:05;;;;;;;23.08;17.35;;;;;;;;;;5035676;28;20126;-78
2022/11/27 11:14:31;;;;;;;17.30;12.70;;;;;;;;;;5035797;28;20036;-77
2022/11/27 11:16:57;;;;;;;21.42;16.40;;;;;;;;;;5035293;28;20486;-78
2022/11/27 11:19:35;;;;;;;19.20;14.95;;;;;;;;;;5035616;28;20042;-78
2022/11/27 11:22:12;;;;;;;23.58;17.60;;;;;;;;;;5035614;28;20022;-78
2022/11/27 11:24:42;;;;;;;19.25;14.70;;;;;;;;;;5035374;28;20549;-78
2022/11/27 11:27:16;;;;;;;23.05;15.20;;;;;;;;;;5035358;28;20035;-78
2022/11/27 11:29:42;;;;;;;21.65;14.63;;;;;;;;;;5035227;28;20036;-78
2022/11/27 11:32:27;;;;;;;21.20;15.88;;;;;;;;;;5035510;28;20064;-78
2022/11/27 11:34:53;;;;;;;;;;;;;;;;;;5035693;28;20025;-78
2022/11/27 11:37:27;;;;;;;17.48;12.02;;;;;;;;;;5035062;28;20264;-78
2022/11/27 11:39:55;;;;;;;14.80;10.40;;;;;;;;;;5035219;28;20168;-79
2022/11/27 11:42:22;;;;;;;18.02;11.00;;;;;;;;;;5034934;28;20029;-78
2022/11/27 11:45:01;;;;;;;19.35;11.45;;;;;;;;;;5035252;28;20112;-77
2022/11/27 11:47:27;;;;;;;16.73;12.75;;;;;;;;;;5035105;28;20029;-78
2022/11/27 11:49:55;;;;;;;15.20;11.73;;;;;;;;;;5035126;28;20164;-78
2022/11/27 11:52:24;;;;;;;14.05;9.93;;;;;;;;;;5034318;28;20083;-78
2022/11/27 11:54:50;;;;;;;15.60;11.35;;;;;;;;;;5035081;28;20029;-78
2022/11/27 11:57:36;;;;;;;14.75;11.43;;;;;;;;;;5034561;28;20032;-79
2022/11/27 12:00:10;;;;;;;14.68;10.40;;;;;;;;;;5024479;28;20060;-78
2022/11/27 12:02:39;;;;;;;12.98;8.80;;;;;;;;;;5034390;28;20060;-78
2022/11/27 12:05:24;;;;;;;18.73;12.80;;;;;;;;;;5034639;28;20029;-78
2022/11/27 12:07:50;;;;;;;;;;;;;;;;;;5035130;28;20057;-78
2022/11/27 12:10:26;;;;;;;19.48;12.40;;;;;;;;;;5034656;28;19998;-78
2022/11/27 12:13:11;;;;;;;14.70;10.40;;;;;;;;;;5016902;28;20025;-78
2022/11/27 12:15:43;;;;;;;18.73;11.00;;;;;;;;;;5034671;28;20119;-77
2022/11/27 12:18:16;;;;;;;13.07;8.82;;;;;;;;;;5034254;28;20052;-78
2022/11/27 12:20:58;;;;;;;14.13;9.30;;;;;;;;;;5034505;28;20060;-78
2022/11/27 12:23:24;;;;;;;17.88;12.23;;;;;;;;;;5034477;28;20033;-78
2022/11/27 12:25:56;;;;;;;24.05;17.63;;;;;;;;;;5016345;28;20393;-78
2022/11/27 12:28:25;;;;;;;14.68;10.20;;;;;;;;;;5034419;28;20095;-77
2022/11/27 12:30:51;;;;;;;16.65;12.98;;;;;;;;;;5034002;28;20064;-78
2022/11/27 12:33:35;;;;;;;13.70;9.50;;;;;;;;;;5034483;28;20365;-78
2022/11/27 12:36:22;;;;;;;10.40;7.43;;;;;;;;;;5034171;28;20053;-78
2022/11/27 12:38:52;;;;;;;13.63;8.70;;;;;;;;;;5034140;28;20037;-78
2022/11/27 12:41:18;;;;;;;22.20;15.25;;;;;;;;;;5033630;28;20473;-77
2022/11/27 12:43:46;;;;;;;20.52;14.60;;;;;;;;;;5034083;28;20025;-78
2022/11/27 12:46:23;;;;;;;34.63;23.70;;;;;;;;;;5033603;28;20025;-77
2022/11/27 12:48:49;;;;;;;15.75;10.57;;;;;;;;;;5033646;28;20380;-79
2022/11/27 12:51:18;;;;;;;17.00;12.13;;;;;;;;;;5033752;28;20129;-79
2022/11/27 12:53:50;;;;;;;15.30;11.02;;;;;;;;;;5034013;28;20040;-79
2022/11/27 12:56:19;;;;;;;14.60;10.65;;;;;;;;;;5033319;28;20652;-78
2022/11/27 12:59:09;;;;;;;25.23;17.80;;;;;;;;;;5015868;28;20112;-78
2022/11/27 13:01:38;;;;;;;25.23;17.58;;;;;;;;;;5025892;28;20053;-78
2022/11/27 13:04:12;;;;;;;20.23;15.30;;;;;;;;;;5032982;28;20149;-78
2022/11/27 13:06:48;;;;;;;24.35;17.48;;;;;;;;;;5033439;28;20033;-79
2022/11/27 13:09:18;;;;;;;36.08;23.77;;;;;;;;;;5033260;28;20024;-80
2022/11/27 13:11:44;;;;;;;21.83;15.90;;;;;;;;;;5015832;28;20029;-78
2022/11/27 13:14:21;;;;;;;23.85;16.98;;;;;;;;;;5033453;28;20061;-79
2022/11/27 13:16:49;;;;;;;22.10;13.98;;;;;;;;;;5033644;28;20072;-79
2022/11/27 13:19:15;;;;;;;25.02;17.85;;;;;;;;;;5033052;28;20381;-79
2022/11/27 13:21:42;;;;;;;25.58;17.75;;;;;;;;;;5033620;28;20025;-79
2022/11/27 13:24:11;;;;;;;24.90;16.95;;;;;;;;;;5033162;28;20100;-79
2022/11/27 13:26:53;;;;;;;21.17;14.27;;;;;;;;;;5033385;28;20030;-79
2022/11/27 13:29:24;;;;;;;18.92;13.55;;;;;;;;;;5033062;28;20389;-79
2022/11/27 13:31:53;;;;;;;27.58;20.02;;;;;;;;;;5033094;28;20052;-79
2022/11/27 13:34:21;;;;;;;27.48;18.75;;;;;;;;;;5033229;28;20029;-78
2022/11/27 13:36:54;;;;;;;31.75;23.27;;;;;;;;;;5032858;28;20060;-79
2022/11/27 13:39:24;;;;;;;44.70;31.42;;;;;;;;;;5032950;28;20052;-79
2022/11/27 13:42:00;;;;;;;39.35;29.60;;;;;;;;;;5032828;28;20112;-79
2022/11/27 13:44:27;;;;;;;23.88;17.77;;;;;;;;;;5015535;28;20381;-79
2022/11/27 13:46:55;;;;;;;29.65;22.73;;;;;;;;;;5032779;28;20026;-79
2022/11/27 13:49:25;;;;;;;31.70;23.00;;;;;;;;;;5032869;28;20393;-80
2022/11/27 13:51:51;;;;;;;37.17;25.38;;;;;;;;;;5032745;28;20025;-80
2022/11/27 13:54:20;;;;;;;34.72;23.40;;;;;;;;;;5015000;28;20029;-79
2022/11/27 13:56:47;;;;;;;23.33;16.50;;;;;;;;;;5032497;28;20029;-79
2022/11/27 13:59:24;;;;;;;23.30;17.63;;;;;;;;;;5032486;28;20030;-80
2022/11/27 14:01:57;;;;;;;24.40;17.58;;;;;;;;;;5032642;28;20052;-79
2022/11/27 14:04:23;;;;;;;21.23;13.77;;;;;;;;;;5032317;28;20022;-80
2022/11/27 14:07:09;;;;;;;20.05;15.00;;;;;;;;;;5032662;28;20112;-79
2022/11/27 14:09:40;;;;;;;22.80;16.20;;;;;;;;;;5032490;28;20017;-80
2022/11/27 14:12:26;;;;;;;22.13;15.00;;;;;;;;;;5032055;28;20029;-78
2022/11/27 14:15:07;;;;;;;29.65;20.65;;;;;;;;;;5031724;28;20026;-80
2022/11/27 14:17:36;;;;;;;35.30;24.35;;;;;;;;;;5032328;28;20073;-79
2022/11/27 14:20:04;;;;;;;28.70;21.38;;;;;;;;;;5014644;28;20040;-80
2022/11/27 14:22:41;;;;;;;25.50;19.30;;;;;;;;;;5032295;28;20116;-80
2022/11/27 14:25:26;;;;;;;34.38;22.20;;;;;;;;;;5032308;28;20476;-80
2022/11/27 14:28:12;;;;;;;52.05;33.35;;;;;;;;;;5032258;28;20033;-80
2022/11/27 14:30:45;;;;;;;39.28;24.95;;;;;;;;;;5021938;28;20037;-79
2022/11/27 14:33:18;;;;;;;43.60;29.33;;;;;;;;;;5031965;28;20055;-78
2022/11/27 14:35:47;;;;;;;47.97;31.52;;;;;;;;;;5032067;28;20040;-79